Terminal Aerodrome Forecast
Issued by NWS

Current Version | Previous Version | Text Only | Print | Product List | Glossary On
Versions: 1 2 3 4 5 6 7 8 9 10 11 12 13 14
049
FTPA31 PHFO 270529
TAFHTO
TAF
PHTO 270529Z 2706/2806 23006KT P6SM SCT025 OVC045
     FM271900 08012KT P6SM SCT025 BKN050
     FM280400 07008KT P6SM FEW025 BKN045=

USA.gov is the U.S. government's official web portal to all federal, state and local government web resources and services.